createdAt,value
2023-05-09T00:02:13.434Z,102854.33
2023-05-09T00:04:41.899Z,102858.27
2023-05-09T00:07:10.778Z,102849.97
2023-05-09T00:09:38.937Z,102849.90
2023-05-09T00:12:08.135Z,102850.33
2023-05-09T00:14:36.379Z,102856.12
2023-05-09T00:17:04.638Z,102858.50
2023-05-09T00:19:33.581Z,102863.95
2023-05-09T00:22:01.820Z,102863.55
2023-05-09T00:24:30.006Z,102866.45
2023-05-09T00:26:58.208Z,102867.92
2023-05-09T00:29:27.009Z,102865.77
2023-05-09T00:31:55.380Z,102863.73
2023-05-09T00:34:23.727Z,102867.13
2023-05-09T00:36:52.068Z,102867.87
2023-05-09T00:39:20.975Z,102868.66
2023-05-09T00:41:49.180Z,102867.02
2023-05-09T00:44:17.319Z,102868.67
2023-05-09T00:46:45.685Z,102868.55
2023-05-09T00:49:13.939Z,102868.35
2023-05-09T00:51:42.217Z,102865.73
2023-05-09T00:54:12.187Z,102852.59
2023-05-09T00:56:40.641Z,102864.17
2023-05-09T00:59:09.103Z,102863.46
2023-05-09T01:01:37.393Z,102859.77
2023-05-09T01:04:07.951Z,102859.41
2023-05-09T01:07:01.107Z,102861.06
2023-05-09T01:10:23.495Z,102862.05
2023-05-09T01:13:04.544Z,102855.73
2023-05-09T01:15:37.156Z,102854.80
2023-05-09T01:18:25.108Z,102856.02
2023-05-09T01:21:09.052Z,102838.16
2023-05-09T01:23:44.207Z,102853.64
2023-05-09T01:26:26.283Z,102855.98
2023-05-09T01:29:23.348Z,102857.91
2023-05-09T01:31:53.609Z,102854.60
2023-05-09T01:34:24.548Z,102855.95
2023-05-09T01:36:58.382Z,102850.73
2023-05-09T01:39:28.601Z,102852.09
2023-05-09T01:42:01.426Z,102851.20
2023-05-09T01:44:39.181Z,102851.50
2023-05-09T01:47:08.148Z,102852.20
2023-05-09T01:49:38.621Z,102853.60
2023-05-09T01:52:11.696Z,102848.09
2023-05-09T01:54:40.697Z,102851.11
2023-05-09T01:57:11.523Z,102852.34
2023-05-09T01:59:43.127Z,102854.77
2023-05-09T02:02:12.510Z,102851.53
2023-05-09T02:04:43.522Z,102852.19
2023-05-09T02:07:12.940Z,102854.92
2023-05-09T02:09:41.432Z,102852.34
2023-05-09T02:12:09.550Z,102856.27
2023-05-09T02:14:37.706Z,102855.16
2023-05-09T02:17:11.569Z,102856.96
2023-05-09T02:19:39.736Z,102858.48
2023-05-09T02:22:08.058Z,102855.45
2023-05-09T02:24:36.977Z,102856.36
2023-05-09T02:27:06.252Z,102858.66
2023-05-09T02:29:49.351Z,102860.14
2023-05-09T02:32:23.287Z,102860.01
2023-05-09T02:34:55.685Z,102862.45
2023-05-09T02:37:26.104Z,102863.80
2023-05-09T02:39:55.444Z,102861.73
2023-05-09T02:42:26.717Z,102858.10
2023-05-09T02:44:56.253Z,102861.36
2023-05-09T02:47:24.521Z,102862.13
2023-05-09T02:49:52.800Z,102860.52
2023-05-09T02:52:21.722Z,102861.79
2023-05-09T02:54:49.873Z,102863.97
2023-05-09T02:57:18.010Z,102862.52
2023-05-09T02:59:46.225Z,102863.67
2023-05-09T03:02:14.836Z,102851.48
2023-05-09T03:04:43.367Z,102867.81
2023-05-09T03:07:11.556Z,102850.64
2023-05-09T03:09:41.096Z,102863.63
2023-05-09T03:12:09.621Z,102859.86
2023-05-09T03:14:37.818Z,102858.20
2023-05-09T03:17:06.044Z,102859.36
2023-05-09T03:19:36.282Z,102861.73
2023-05-09T03:22:04.495Z,102860.00
2023-05-09T03:24:34.988Z,102860.94
2023-05-09T03:27:03.920Z,102858.46
2023-05-09T03:29:32.232Z,102856.15
2023-05-09T03:32:00.351Z,102856.80
2023-05-09T03:34:28.671Z,102858.88
2023-05-09T03:36:57.189Z,102859.80
2023-05-09T03:39:26.630Z,102853.06
2023-05-09T03:41:57.175Z,102862.29
2023-05-09T03:44:26.141Z,102866.85
2023-05-09T03:46:54.534Z,102874.23
2023-05-09T03:49:23.293Z,102872.83
2023-05-09T03:51:53.767Z,102872.22
2023-05-09T03:54:21.991Z,102872.66
2023-05-09T03:56:50.650Z,102879.31
2023-05-09T03:59:18.851Z,102879.77
2023-05-09T04:01:47.274Z,102880.25
2023-05-09T04:04:15.631Z,102880.27
2023-05-09T04:06:44.526Z,102875.56
2023-05-09T04:09:13.311Z,102879.66
2023-05-09T04:11:42.606Z,102881.20
2023-05-09T04:14:12.564Z,102877.69
2023-05-09T04:16:41.353Z,102877.88
2023-05-09T04:19:10.857Z,102874.86
2023-05-09T04:21:39.577Z,102879.42
2023-05-09T04:24:08.295Z,102878.69
2023-05-09T04:26:43.178Z,102867.51
2023-05-09T04:29:13.962Z,102881.13
2023-05-09T04:31:42.776Z,102878.43
2023-05-09T04:34:12.951Z,102881.34
2023-05-09T04:36:41.205Z,102884.77
2023-05-09T04:39:11.325Z,102892.84
2023-05-09T04:41:46.293Z,102893.02
2023-05-09T04:44:17.247Z,102893.10
2023-05-09T04:46:45.639Z,102890.77
2023-05-09T04:49:13.959Z,102900.70
2023-05-09T04:51:43.142Z,102897.66
2023-05-09T04:54:11.403Z,102898.58
2023-05-09T04:56:40.008Z,102900.54
2023-05-09T04:59:08.249Z,102900.75
2023-05-09T05:01:36.478Z,102897.70
2023-05-09T05:04:04.953Z,102895.60
2023-05-09T05:06:33.538Z,102894.73
2023-05-09T05:09:01.891Z,102887.76
2023-05-09T05:11:30.184Z,102893.77
2023-05-09T05:14:00.089Z,102892.50
2023-05-09T05:16:28.524Z,102893.26
2023-05-09T05:18:56.765Z,102888.95
2023-05-09T05:21:27.173Z,102889.39
2023-05-09T05:23:55.393Z,102864.92
2023-05-09T05:26:23.574Z,102889.42
2023-05-09T05:28:55.670Z,102887.79
2023-05-09T05:31:24.043Z,102883.37
2023-05-09T05:33:52.443Z,102880.75
2023-05-09T05:36:21.309Z,102881.59
2023-05-09T05:38:49.514Z,102881.68
2023-05-09T05:41:18.139Z,102884.48
2023-05-09T05:43:46.848Z,102881.48
2023-05-09T05:46:16.201Z,102880.96
2023-05-09T05:48:44.700Z,102882.38
2023-05-09T05:51:12.846Z,102882.16
2023-05-09T05:53:41.730Z,102876.09
2023-05-09T05:56:10.932Z,102871.14
2023-05-09T05:58:39.276Z,102858.85
2023-05-09T06:01:08.464Z,102865.45
2023-05-09T06:03:36.763Z,102869.61
2023-05-09T06:06:07.424Z,102869.77
2023-05-09T06:08:35.782Z,102863.60
2023-05-09T06:11:05.975Z,102866.80
2023-05-09T06:13:34.260Z,102866.83
2023-05-09T06:16:18.761Z,102868.83
2023-05-09T06:18:50.088Z,102854.69
2023-05-09T06:21:18.286Z,102868.59
2023-05-09T06:24:02.062Z,102864.41
2023-05-09T06:26:35.057Z,102863.25
2023-05-09T06:29:04.083Z,102865.60
2023-05-09T06:31:33.214Z,102860.41
2023-05-09T06:34:01.614Z,102859.71
2023-05-09T06:36:30.865Z,102859.00
2023-05-09T06:38:59.448Z,102859.52
2023-05-09T06:41:27.841Z,102861.86
2023-05-09T06:43:56.412Z,102846.23
2023-05-09T06:46:24.631Z,102860.16
2023-05-09T06:48:53.070Z,102854.20
2023-05-09T06:51:21.340Z,102856.59
2023-05-09T06:53:49.512Z,102855.63
2023-05-09T06:56:20.455Z,102851.89
2023-05-09T06:58:49.005Z,102853.70
2023-05-09T07:01:17.884Z,102846.99
2023-05-09T07:03:47.693Z,102840.21
2023-05-09T07:06:15.985Z,102845.36
2023-05-09T07:08:44.146Z,102838.98
2023-05-09T07:11:12.379Z,102840.49
2023-05-09T07:13:40.640Z,102841.74
2023-05-09T07:16:08.899Z,102832.33
2023-05-09T07:18:37.219Z,102835.89
2023-05-09T07:21:05.690Z,102836.73
2023-05-09T07:23:33.954Z,102831.77
2023-05-09T07:26:02.292Z,102826.92
2023-05-09T07:28:30.698Z,102825.65
2023-05-09T07:30:58.949Z,102825.16
2023-05-09T07:33:27.203Z,102821.23
2023-05-09T07:35:56.631Z,102825.13
2023-05-09T07:38:24.925Z,102821.21
2023-05-09T07:40:53.820Z,102822.05
2023-05-09T07:43:23.397Z,102814.88
2023-05-09T07:45:52.063Z,102811.13
2023-05-09T07:48:20.602Z,102804.30
2023-05-09T07:50:48.848Z,102805.72
2023-05-09T07:53:17.080Z,102803.71
2023-05-09T07:55:47.666Z,102800.96
2023-05-09T07:58:16.922Z,102797.33
2023-05-09T08:00:45.244Z,102797.36
2023-05-09T08:03:14.043Z,102784.70
2023-05-09T08:05:44.875Z,102785.83
2023-05-09T08:08:13.040Z,102780.93
2023-05-09T08:10:41.246Z,102778.72
2023-05-09T08:13:09.762Z,102785.65
2023-05-09T08:15:38.014Z,102784.89
2023-05-09T08:18:09.263Z,102775.59
2023-05-09T08:20:38.090Z,102777.00
2023-05-09T08:23:06.477Z,102771.48
2023-05-09T08:25:35.070Z,102764.27
2023-05-09T08:28:03.417Z,102774.59
2023-05-09T08:30:31.937Z,102764.66
2023-05-09T08:33:00.201Z,102757.16
2023-05-09T08:35:28.432Z,102757.95
2023-05-09T08:37:56.595Z,102756.56
2023-05-09T08:40:24.787Z,102753.52
2023-05-09T08:42:53.082Z,102754.25
2023-05-09T08:45:27.830Z,102739.23
2023-05-09T08:47:57.162Z,102741.76
2023-05-09T08:50:25.891Z,102736.15
2023-05-09T08:52:54.820Z,102737.95
2023-05-09T08:55:23.291Z,102735.13
2023-05-09T08:57:52.325Z,102725.52
2023-05-09T09:00:21.473Z,102723.73
2023-05-09T09:02:50.580Z,102726.73
2023-05-09T09:05:39.568Z,102723.86
2023-05-09T09:08:08.356Z,102722.67
2023-05-09T09:10:40.689Z,102722.31
2023-05-09T09:13:11.687Z,102717.97
2023-05-09T09:15:42.642Z,102719.17
2023-05-09T09:18:23.603Z,102714.19
2023-05-09T09:20:57.979Z,102712.98
2023-05-09T09:23:27.422Z,102707.88
2023-05-09T09:26:01.539Z,102710.25
2023-05-09T09:28:31.183Z,102711.66
2023-05-09T09:30:59.427Z,102714.62
2023-05-09T09:33:29.818Z,102705.67
2023-05-09T09:35:58.179Z,102701.42
2023-05-09T09:38:27.513Z,102698.67
2023-05-09T09:40:56.499Z,102696.23
2023-05-09T09:43:31.072Z,102690.38
2023-05-09T09:46:03.583Z,102694.62
2023-05-09T09:48:34.222Z,102695.33
2023-05-09T09:51:08.617Z,102692.06
2023-05-09T09:53:43.658Z,102687.96
2023-05-09T09:56:12.002Z,102679.44
2023-05-09T09:58:40.352Z,102678.72
2023-05-09T10:01:10.841Z,102676.05
2023-05-09T10:03:41.020Z,102675.02
2023-05-09T10:06:14.128Z,102659.90
2023-05-09T10:08:47.337Z,102674.35
2023-05-09T10:11:15.597Z,102669.31
2023-05-09T10:13:45.536Z,102658.23
2023-05-09T10:16:14.601Z,102657.09
2023-05-09T10:18:43.368Z,102653.33
2023-05-09T10:21:15.490Z,102654.89
2023-05-09T10:23:47.267Z,102657.20
2023-05-09T10:26:27.830Z,102652.73
2023-05-09T10:28:58.334Z,102647.98
2023-05-09T10:31:27.840Z,102643.40
2023-05-09T10:33:56.381Z,102637.65
2023-05-09T10:36:26.254Z,102633.47
2023-05-09T10:38:55.629Z,102621.27
2023-05-09T10:41:24.283Z,102624.70
2023-05-09T10:43:56.649Z,102623.79
2023-05-09T10:46:25.285Z,102622.96
2023-05-09T10:48:55.147Z,102617.15
2023-05-09T10:51:26.204Z,102614.95
2023-05-09T10:53:56.096Z,102608.08
2023-05-09T10:56:30.089Z,102605.30
2023-05-09T10:58:59.710Z,102599.59
2023-05-09T11:01:39.801Z,102592.17
2023-05-09T11:04:14.588Z,102584.19
2023-05-09T11:06:47.191Z,102591.61
2023-05-09T11:09:41.750Z,102590.66
2023-05-09T11:12:15.239Z,102581.95
2023-05-09T11:14:56.249Z,102587.15
2023-05-09T11:17:32.663Z,102578.96
2023-05-09T11:20:05.926Z,102581.77
2023-05-09T11:22:43.383Z,102564.58
2023-05-09T11:25:14.236Z,102569.52
2023-05-09T11:27:52.331Z,102563.76
2023-05-09T11:30:21.203Z,102563.54
2023-05-09T11:32:56.104Z,102566.95
2023-05-09T11:35:26.925Z,102561.90
2023-05-09T11:38:07.242Z,102562.94
2023-05-09T11:40:35.624Z,102560.34
2023-05-09T11:43:04.181Z,102552.50
2023-05-09T11:45:34.139Z,102554.85
2023-05-09T11:48:09.218Z,102545.77
2023-05-09T11:50:37.579Z,102536.76
2023-05-09T11:53:08.452Z,102529.04
2023-05-09T11:55:38.298Z,102528.54
2023-05-09T11:58:07.719Z,102527.11
2023-05-09T12:00:37.621Z,102521.13
2023-05-09T12:03:06.835Z,102522.08
2023-05-09T12:05:35.320Z,102516.27
2023-05-09T12:08:04.894Z,102518.97
2023-05-09T12:10:37.906Z,102502.45
2023-05-09T12:13:06.085Z,102498.77
2023-05-09T12:15:38.544Z,102492.52
2023-05-09T12:18:08.611Z,102490.16
2023-05-09T12:20:55.405Z,102489.02
2023-05-09T12:23:23.588Z,102489.80
2023-05-09T12:25:56.193Z,102483.30
2023-05-09T12:28:25.924Z,102481.52
2023-05-09T12:30:55.073Z,102475.23
2023-05-09T12:33:24.089Z,102478.27
2023-05-09T12:36:05.999Z,102481.95
2023-05-09T12:38:34.647Z,102475.52
2023-05-09T12:41:10.705Z,102465.57
2023-05-09T12:43:49.738Z,102464.71
2023-05-09T12:46:20.192Z,102453.95
2023-05-09T12:48:49.538Z,102463.97
2023-05-09T12:51:22.062Z,102462.73
2023-05-09T12:53:51.247Z,102454.10
2023-05-09T12:56:23.625Z,102449.40
2023-05-09T12:58:53.890Z,102446.07
2023-05-09T13:01:27.905Z,102440.46
2023-05-09T13:04:06.821Z,102439.70
2023-05-09T13:06:36.352Z,102437.27
2023-05-09T13:09:06.616Z,102433.30
2023-05-09T13:11:35.520Z,102432.10
2023-05-09T13:14:04.306Z,102435.08
2023-05-09T13:16:32.625Z,102430.39
2023-05-09T13:19:01.892Z,102427.66
2023-05-09T13:21:30.103Z,102423.42
2023-05-09T13:23:58.327Z,102422.22
2023-05-09T13:26:27.606Z,102416.33
2023-05-09T13:28:56.368Z,102407.23
2023-05-09T13:31:24.640Z,102407.74
2023-05-09T13:33:53.327Z,102413.00
2023-05-09T13:36:21.531Z,102407.33
2023-05-09T13:38:49.719Z,102396.78
2023-05-09T13:41:21.901Z,102398.42
2023-05-09T13:43:51.727Z,102386.48
2023-05-09T13:46:20.157Z,102390.58
2023-05-09T13:48:48.581Z,102388.63
2023-05-09T13:51:16.896Z,102382.36
2023-05-09T13:53:45.072Z,102385.59
2023-05-09T13:56:14.096Z,102390.45
2023-05-09T13:58:42.219Z,102384.27
2023-05-09T14:01:10.569Z,102380.73
2023-05-09T14:03:39.203Z,102370.98
2023-05-09T14:06:10.026Z,102364.13
2023-05-09T14:08:39.796Z,102361.58
2023-05-09T14:11:09.507Z,102361.58
2023-05-09T14:13:37.628Z,102357.27
2023-05-09T14:16:06.478Z,102355.30
2023-05-09T14:18:35.456Z,102350.85
2023-05-09T14:21:03.907Z,102341.02
2023-05-09T14:23:32.447Z,102446.96
2023-05-09T14:26:00.818Z,102498.58
2023-05-09T14:28:29.018Z,102510.08
2023-05-09T14:30:57.879Z,102501.18
2023-05-09T14:33:26.376Z,102467.52
2023-05-09T14:35:54.630Z,102399.09
2023-05-09T14:38:22.877Z,102348.30
2023-05-09T14:40:51.081Z,102347.39
2023-05-09T14:43:19.229Z,102347.98
2023-05-09T14:45:47.514Z,102345.04
2023-05-09T14:48:16.344Z,102348.78
2023-05-09T14:50:44.659Z,102357.23
2023-05-09T14:53:13.085Z,102356.31
2023-05-09T14:55:41.636Z,102355.36
2023-05-09T14:58:09.872Z,102353.46
2023-05-09T15:00:38.281Z,102377.02
2023-05-09T15:03:06.517Z,102387.04
2023-05-09T15:05:34.834Z,102387.30
2023-05-09T15:08:03.407Z,102409.80
2023-05-09T15:10:31.991Z,102403.07
2023-05-09T15:13:00.825Z,102394.98
2023-05-09T15:15:29.050Z,102389.29
2023-05-09T15:17:57.766Z,102387.88
2023-05-09T15:20:25.971Z,102384.23
2023-05-09T15:22:54.202Z,102383.14
2023-05-09T15:25:23.549Z,102377.36
2023-05-09T15:27:51.762Z,102371.74
2023-05-09T15:30:20.171Z,102360.06
2023-05-09T15:32:48.399Z,102351.86
2023-05-09T15:35:18.345Z,102340.79
2023-05-09T15:37:46.485Z,102325.66
2023-05-09T15:40:15.163Z,102325.21
2023-05-09T15:42:43.643Z,102314.91
2023-05-09T15:45:12.119Z,102304.45
2023-05-09T15:47:40.508Z,102296.77
2023-05-09T15:50:09.019Z,102288.33
2023-05-09T15:52:37.480Z,102273.19
2023-05-09T15:55:06.764Z,102265.30
2023-05-09T15:57:35.050Z,102250.54
2023-05-09T16:00:08.858Z,102241.08
2023-05-09T16:02:44.423Z,102238.12
2023-05-09T16:05:13.268Z,102291.73
2023-05-09T16:07:46.293Z,102328.52
2023-05-09T16:10:14.570Z,102329.31
2023-05-09T16:12:43.707Z,102327.08
2023-05-09T16:15:12.569Z,102300.88
2023-05-09T16:17:41.270Z,102274.44
2023-05-09T16:20:13.812Z,102260.73
2023-05-09T16:22:42.741Z,102249.23
2023-05-09T16:25:11.374Z,102238.55
2023-05-09T16:27:39.596Z,102231.77
2023-05-09T16:30:08.502Z,102228.93
2023-05-09T16:32:37.086Z,102223.56
2023-05-09T16:35:06.414Z,102209.06
2023-05-09T16:37:35.683Z,102233.38
2023-05-09T16:40:04.895Z,102263.07
2023-05-09T16:42:33.103Z,102276.14
2023-05-09T16:45:02.628Z,102298.14
2023-05-09T16:47:31.117Z,102312.50
2023-05-09T16:49:59.514Z,102308.18
2023-05-09T16:52:27.888Z,102316.92
2023-05-09T16:54:59.361Z,102323.83
2023-05-09T16:57:27.821Z,102307.30
2023-05-09T16:59:56.331Z,102308.75
2023-05-09T17:02:24.508Z,102302.64
2023-05-09T17:04:53.579Z,102298.91
2023-05-09T17:07:21.854Z,102294.14
2023-05-09T17:09:50.114Z,102291.61
2023-05-09T17:12:18.564Z,102284.63
2023-05-09T17:14:50.002Z,102277.66
2023-05-09T17:17:18.149Z,102270.44
2023-05-09T17:19:46.502Z,102264.67
2023-05-09T17:22:14.790Z,102253.34
2023-05-09T17:24:43.145Z,102244.27
2023-05-09T17:27:11.697Z,102231.52
2023-05-09T17:29:39.970Z,102223.81
2023-05-09T17:32:08.112Z,102214.27
2023-05-09T17:34:36.280Z,102209.70
2023-05-09T17:37:06.004Z,102202.86
2023-05-09T17:39:34.465Z,102197.64
2023-05-09T17:42:02.775Z,102194.27
2023-05-09T17:44:31.490Z,102185.38
2023-05-09T17:46:59.896Z,102185.14
2023-05-09T17:49:30.652Z,102177.55
2023-05-09T17:52:02.367Z,102175.14
2023-05-09T17:54:30.673Z,102171.02
2023-05-09T17:57:02.285Z,102171.70
2023-05-09T17:59:30.496Z,102174.39
2023-05-09T18:01:59.107Z,102172.53
2023-05-09T18:04:30.348Z,102173.79
2023-05-09T18:06:58.554Z,102167.40
2023-05-09T18:09:26.767Z,102174.05
2023-05-09T18:11:54.868Z,102176.73
2023-05-09T18:14:23.028Z,102177.38
2023-05-09T18:16:51.231Z,102172.46
2023-05-09T18:19:19.469Z,102176.17
2023-05-09T18:21:47.574Z,102172.77
2023-05-09T18:24:17.023Z,102171.17
2023-05-09T18:26:45.431Z,102170.13
2023-05-09T18:29:13.736Z,102170.46
2023-05-09T18:31:41.985Z,102171.39
2023-05-09T18:34:10.152Z,102168.18
2023-05-09T18:36:38.318Z,102170.97
2023-05-09T18:39:06.418Z,102172.60
2023-05-09T18:41:34.621Z,102176.38
2023-05-09T18:44:02.737Z,102171.86
2023-05-09T18:46:33.707Z,102176.13
2023-05-09T18:49:04.031Z,102174.19
2023-05-09T18:51:32.314Z,102171.91
2023-05-09T18:54:00.402Z,102172.05
2023-05-09T18:56:28.593Z,102173.23
2023-05-09T18:58:56.843Z,102178.77
2023-05-09T19:01:25.243Z,102179.17
2023-05-09T19:03:55.185Z,102173.88
2023-05-09T19:06:24.282Z,102171.86
2023-05-09T19:08:53.935Z,102178.34
2023-05-09T19:11:22.607Z,102175.38
2023-05-09T19:13:50.942Z,102174.52
2023-05-09T19:16:21.774Z,102174.92
2023-05-09T19:18:50.023Z,102179.13
2023-05-09T19:24:06.376Z,102180.96
2023-05-09T19:26:34.558Z,102181.34
2023-05-09T19:29:07.933Z,102180.16
2023-05-09T19:31:37.800Z,102180.57
2023-05-09T19:34:06.807Z,102182.71
2023-05-09T19:36:35.063Z,102178.14
2023-05-09T19:39:07.249Z,102176.99
2023-05-09T19:41:35.512Z,102178.27
2023-05-09T19:44:03.895Z,102180.70
2023-05-09T19:46:32.134Z,102176.35
2023-05-09T19:49:00.643Z,102174.20
2023-05-09T19:51:28.924Z,102178.23
2023-05-09T19:53:57.001Z,102176.38
2023-05-09T19:56:25.070Z,102177.66
2023-05-09T19:58:53.529Z,102178.00
2023-05-09T20:01:21.925Z,102175.94
2023-05-09T20:03:52.848Z,102179.08
2023-05-09T20:09:06.731Z,102178.23
2023-05-09T20:11:34.952Z,102182.98
2023-05-09T20:14:03.863Z,102187.48
2023-05-09T20:16:32.094Z,102187.60
2023-05-09T20:19:00.274Z,102187.74
2023-05-09T20:21:28.397Z,102184.52
2023-05-09T20:23:56.454Z,102187.77
2023-05-09T20:26:25.284Z,102187.73
2023-05-09T20:28:58.914Z,102191.38
2023-05-09T20:31:28.792Z,102189.15
2023-05-09T20:33:57.915Z,102191.64
2023-05-09T20:36:28.162Z,102189.45
2023-05-09T20:38:57.631Z,102189.05
2023-05-09T20:41:25.675Z,102189.42
2023-05-09T20:43:54.312Z,102188.98
2023-05-09T20:46:22.475Z,102187.82
2023-05-09T20:48:50.720Z,102190.52
2023-05-09T20:51:19.127Z,102186.73
2023-05-09T20:53:47.450Z,102188.23
2023-05-09T20:56:16.380Z,102191.32
2023-05-09T20:58:44.488Z,102185.96
2023-05-09T21:01:12.606Z,102186.42
2023-05-09T21:03:40.866Z,102187.27
2023-05-09T21:06:08.977Z,102184.77
2023-05-09T21:08:37.073Z,102183.68
2023-05-09T21:11:05.793Z,102184.30
2023-05-09T21:13:33.825Z,102187.06
2023-05-09T21:16:02.013Z,102191.25
2023-05-09T21:18:30.089Z,102191.25
2023-05-09T21:21:03.513Z,102191.05
2023-05-09T21:23:31.623Z,102191.90
2023-05-09T21:25:59.662Z,102188.61
2023-05-09T21:28:27.816Z,102189.94
2023-05-09T21:30:56.506Z,102191.10
2023-05-09T21:33:24.764Z,102189.68
2023-05-09T21:35:52.834Z,102185.75
2023-05-09T21:38:21.156Z,102187.73
2023-05-09T21:40:51.251Z,102187.33
2023-05-09T21:43:19.800Z,102185.58
2023-05-09T21:45:48.055Z,102183.25
2023-05-09T21:48:16.416Z,102183.84
2023-05-09T21:50:46.127Z,102182.38
2023-05-09T21:53:14.425Z,102184.20
2023-05-09T21:55:42.542Z,102185.10
2023-05-09T21:58:10.618Z,102189.69
2023-05-09T22:00:38.748Z,102190.41
2023-05-09T22:03:07.042Z,102190.38
2023-05-09T22:05:35.230Z,102190.66
2023-05-09T22:08:03.406Z,102191.05
2023-05-09T22:10:31.797Z,102190.14
2023-05-09T22:12:59.908Z,102188.02
2023-05-09T22:15:28.533Z,102186.96
2023-05-09T22:17:56.661Z,102183.48
2023-05-09T22:20:24.864Z,102182.77
2023-05-09T22:22:52.964Z,102185.38
2023-05-09T22:25:21.129Z,102182.78
2023-05-09T22:27:49.347Z,102185.95
2023-05-09T22:30:17.638Z,102182.89
2023-05-09T22:32:46.068Z,102189.27
2023-05-09T22:35:14.149Z,102191.47
2023-05-09T22:37:42.296Z,102192.77
2023-05-09T22:40:10.627Z,102191.70
2023-05-09T22:42:39.042Z,102189.98
2023-05-09T22:45:08.273Z,102190.44
2023-05-09T22:47:36.806Z,102186.78
2023-05-09T22:50:05.344Z,102186.60
2023-05-09T22:52:33.469Z,102183.16
2023-05-09T22:55:01.560Z,102180.33
2023-05-09T22:57:29.837Z,102178.89
2023-05-09T22:59:58.155Z,102175.38
2023-05-09T23:02:26.379Z,102177.79
2023-05-09T23:04:54.697Z,102180.35
2023-05-09T23:07:22.822Z,102182.83
2023-05-09T23:09:51.154Z,102183.20
2023-05-09T23:12:19.725Z,102181.24
2023-05-09T23:14:47.883Z,102181.02
2023-05-09T23:17:16.272Z,102177.86
2023-05-09T23:19:44.417Z,102174.50
2023-05-09T23:22:12.692Z,102176.52
2023-05-09T23:24:41.500Z,102173.46
2023-05-09T23:27:09.878Z,102170.89
2023-05-09T23:29:38.248Z,102168.86
2023-05-09T23:32:06.448Z,102169.73
2023-05-09T23:34:36.430Z,102167.48
2023-05-09T23:37:05.020Z,102163.25
2023-05-09T23:39:33.282Z,102163.48
2023-05-09T23:42:01.413Z,102166.73
2023-05-09T23:44:30.488Z,102169.08
2023-05-09T23:46:58.631Z,102162.08
2023-05-09T23:49:27.372Z,102167.14
2023-05-09T23:51:56.748Z,102163.75
2023-05-09T23:54:25.232Z,102159.50
2023-05-09T23:56:53.426Z,102147.73
2023-05-09T23:59:21.730Z,102152.12
